Time;durP1;ratioP1;P1;durP2;ratioP2;P2;SDS_P1;SDS_P2;PMS_P1;PMS_P2;Temp;Humidity;BMP_temperature;BMP_pressure;BME280_temperature;BME280_humidity;BME280_pressure;Samples;Min_cycle;Max_cycle;Signal;HPM_P1;HPM_P2
2022/03/19 00:01:46;;;;;;;0.45;0.45;;;;;;;-3.01;55.43;101576.88;4879878;29;20116;-89
2022/03/19 00:04:18;;;;;;;0.55;0.55;;;;;;;-3.12;55.96;101575.72;4879741;29;20061;-90
2022/03/19 00:06:47;;;;;;;0.57;0.57;;;;;;;-3.09;56.19;101574.69;4863686;29;20056;-87
2022/03/19 00:09:14;;;;;;;0.63;0.63;;;;;;;-3.13;56.21;101575.84;4864757;29;20049;-90
2022/03/19 00:11:41;;;;;;;0.57;0.57;;;;;;;-3.19;56.87;101571.78;4880541;29;20057;-88
2022/03/19 00:14:12;;;;;;;0.50;0.50;;;;;;;-3.23;57.22;101572.91;4864390;29;20516;-89
2022/03/19 00:16:40;;;;;;;0.50;0.50;;;;;;;-3.24;57.15;101567.72;4866692;29;20534;-89
2022/03/19 00:19:08;;;;;;;0.38;0.38;;;;;;;-3.31;57.32;101562.81;4866658;29;20053;-91
2022/03/19 00:21:37;;;;;;;0.60;0.60;;;;;;;-3.47;57.80;101566.44;4883445;29;20052;-90
2022/03/19 00:24:05;;;;;;;0.60;0.60;;;;;;;-3.63;57.96;101572.63;4881849;29;20057;-88
2022/03/19 00:26:35;;;;;;;0.60;0.60;;;;;;;-3.76;58.26;101566.38;4880466;29;20071;-90
2022/03/19 00:29:03;;;;;;;0.40;0.40;;;;;;;-3.96;58.29;101560.47;4865692;29;20060;-89
2022/03/19 00:31:31;;;;;;;0.47;0.47;;;;;;;-3.91;58.54;101562.84;4882922;29;20084;-89
2022/03/19 00:33:58;;;;;;;0.70;0.70;;;;;;;-3.92;58.46;101567.28;4883537;29;20045;-91
2022/03/19 00:36:25;;;;;;;0.60;0.60;;;;;;;-3.97;58.78;101563.22;4881132;29;20064;-89
2022/03/19 00:38:53;;;;;;;0.50;0.50;;;;;;;-3.82;58.72;101569.38;4900222;29;20048;-90
2022/03/19 00:41:24;;;;;;;0.50;0.50;;;;;;;-3.83;59.01;101575.59;4920810;29;20116;-90
2022/03/19 00:43:52;;;;;;;0.50;0.50;;;;;;;-3.94;59.16;101579.72;4922166;29;20051;-91
2022/03/19 00:46:20;;;;;;;0.50;0.50;;;;;;;-3.96;59.57;101578.94;4921566;29;20051;-89
2022/03/19 00:48:48;;;;;;;0.57;0.57;;;;;;;-3.98;59.71;101572.88;4921318;29;20054;-88
2022/03/19 00:51:15;;;;;;;0.40;0.40;;;;;;;-3.95;59.52;101571.88;4921645;29;20052;-89
2022/03/19 00:53:42;;;;;;;0.65;0.65;;;;;;;-3.98;59.84;101578.16;4889661;29;20079;-88
2022/03/19 00:56:10;;;;;;;0.40;0.40;;;;;;;-4.06;59.87;101558.47;4905750;29;20108;-89
2022/03/19 00:58:37;;;;;;;0.60;0.60;;;;;;;-3.97;59.85;101568.50;4927934;29;20052;-89
2022/03/19 01:01:04;;;;;;;0.43;0.43;;;;;;;-4.04;60.15;101572.41;4923386;29;20029;-90
2022/03/19 01:03:32;;;;;;;0.65;0.65;;;;;;;-4.02;60.18;101574.03;4937842;29;20044;-88
2022/03/19 01:05:59;;;;;;;0.60;0.60;;;;;;;-4.03;60.23;101569.66;4918023;29;20503;-88
2022/03/19 01:08:26;;;;;;;0.47;0.47;;;;;;;-4.09;60.44;101574.47;4902852;29;20068;-89
2022/03/19 01:10:54;;;;;;;0.45;0.45;;;;;;;-4.10;60.79;101573.63;4917075;29;20055;-88
2022/03/19 01:13:22;;;;;;;0.43;0.43;;;;;;;-4.14;60.83;101572.94;4916299;29;20056;-88
2022/03/19 01:15:57;;;;;;;0.73;0.73;;;;;;;-4.16;61.13;101574.78;4920685;29;20087;-89
2022/03/19 01:18:24;;;;;;;0.50;0.50;;;;;;;-4.12;60.48;101579.91;4903733;29;20571;-89
2022/03/19 01:20:51;;;;;;;0.52;0.52;;;;;;;-4.20;60.81;101578.56;4923255;29;20048;-89
2022/03/19 01:23:18;;;;;;;0.50;0.50;;;;;;;-4.18;61.10;101591.63;4923608;29;20436;-90
2022/03/19 01:25:50;;;;;;;0.50;0.50;;;;;;;-4.22;61.46;101579.59;4924923;29;20063;-90
2022/03/19 01:28:17;;;;;;;0.55;0.55;;;;;;;-4.24;61.60;101576.16;4920255;29;20064;-89
2022/03/19 01:30:44;;;;;;;0.60;0.60;;;;;;;-4.20;61.38;101580.34;4920499;29;20480;-90
2022/03/19 01:33:12;;;;;;;0.52;0.52;;;;;;;-4.22;61.42;101576.94;4920601;29;20115;-90
2022/03/19 01:35:40;;;;;;;0.55;0.55;;;;;;;-4.19;61.30;101580.25;4903613;29;20063;-90
2022/03/19 01:38:07;;;;;;;0.70;0.70;;;;;;;-4.25;61.40;101580.59;4921271;29;20052;-91
2022/03/19 01:40:34;;;;;;;0.60;0.60;;;;;;;-4.30;61.53;101580.00;4920722;29;20067;-90
2022/03/19 01:43:01;;;;;;;0.40;0.40;;;;;;;-4.17;61.13;101582.81;4921158;29;20062;-90
2022/03/19 01:45:29;;;;;;;0.40;0.40;;;;;;;-4.07;60.79;101586.63;4920849;29;20052;-91
2022/03/19 01:47:57;;;;;;;0.40;0.40;;;;;;;-4.09;60.66;101582.38;4905217;29;20056;-91
2022/03/19 01:50:26;;;;;;;0.50;0.50;;;;;;;-4.00;60.34;101593.25;4921573;29;20052;-90
2022/03/19 01:52:54;;;;;;;0.60;0.60;;;;;;;-4.04;60.37;101591.72;4903900;29;20523;-91
2022/03/19 01:55:27;;;;;;;0.40;0.40;;;;;;;-4.03;60.71;101598.69;4919872;29;20083;-89
2022/03/19 01:57:58;;;;;;;0.45;0.45;;;;;;;-4.01;60.53;101593.34;4920441;29;20055;-89
2022/03/19 02:00:27;;;;;;;0.65;0.65;;;;;;;-4.08;60.53;101591.97;4904113;29;20135;-89
2022/03/19 02:02:54;;;;;;;0.50;0.50;;;;;;;-4.10;60.74;101599.13;4920150;29;20052;-88
2022/03/19 02:05:23;;;;;;;0.65;0.65;;;;;;;-4.08;60.83;101603.38;4920015;29;20521;-91
2022/03/19 02:07:51;;;;;;;0.40;0.40;;;;;;;-4.11;60.89;101608.81;4922973;29;20158;-90
2022/03/19 02:10:19;;;;;;;0.70;0.70;;;;;;;-4.14;60.92;101601.09;4927326;29;20051;-90
2022/03/19 02:12:46;;;;;;;0.45;0.45;;;;;;;-4.16;60.94;101601.16;4932561;29;20511;-89
2022/03/19 02:15:14;;;;;;;0.40;0.40;;;;;;;-4.18;61.26;101603.06;4935244;29;20116;-89
2022/03/19 02:17:42;;;;;;;0.50;0.50;;;;;;;-4.21;61.38;101603.22;4942846;29;20059;-89
2022/03/19 02:20:10;;;;;;;0.50;0.50;;;;;;;-4.25;61.60;101612.25;4942553;29;20076;-88
2022/03/19 02:22:40;;;;;;;0.57;0.57;;;;;;;-4.29;61.71;101613.34;4941080;29;20040;-88
2022/03/19 02:27:56;;;;;;;0.60;0.60;;;;;;;-4.36;61.74;101609.34;4922672;29;20059;-90
2022/03/19 02:30:23;;;;;;;0.50;0.50;;;;;;;-4.36;61.71;101610.19;4924464;29;20467;-91
2022/03/19 02:32:50;;;;;;;0.50;0.50;;;;;;;-4.25;61.48;101608.78;4935069;29;20032;-89
2022/03/19 02:35:18;;;;;;;0.60;0.60;;;;;;;-4.29;61.26;101607.22;4924315;29;20076;-90
2022/03/19 02:37:47;;;;;;;0.40;0.40;;;;;;;-4.29;61.23;101604.59;4920780;29;20079;-90
2022/03/19 02:40:17;;;;;;;0.60;0.60;;;;;;;-4.26;61.37;101599.13;4921738;29;20414;-90
2022/03/19 02:42:51;;;;;;;0.68;0.68;;;;;;;-4.27;61.34;101606.19;4922048;29;20124;-91
2022/03/19 02:45:20;;;;;;;0.60;0.60;;;;;;;-4.30;61.28;101608.13;4921358;29;20459;-91
2022/03/19 02:47:59;;;;;;;0.57;0.57;;;;;;;-4.26;61.36;101609.69;4921546;29;20104;-90
2022/03/19 02:50:35;;;;;;;0.65;0.65;;;;;;;-4.34;61.61;101602.19;4922356;29;20045;-90
2022/03/19 02:53:08;;;;;;;0.40;0.40;;;;;;;-4.31;62.00;101609.94;4903171;29;20511;-90
2022/03/19 02:55:38;;;;;;;0.50;0.50;;;;;;;-4.38;62.13;101605.94;4928679;29;20135;-90
2022/03/19 02:58:07;;;;;;;0.52;0.52;;;;;;;-4.43;62.46;101598.31;4940521;29;20078;-87
2022/03/19 03:00:38;;;;;;;0.50;0.50;;;;;;;-4.51;62.19;101599.63;4940632;29;20028;-89
2022/03/19 03:03:06;;;;;;;0.52;0.52;;;;;;;-4.48;62.42;101610.88;4925546;29;20068;-90
2022/03/19 03:05:34;;;;;;;0.50;0.50;;;;;;;-4.49;62.46;101618.88;4940945;29;20092;-89
2022/03/19 03:08:03;;;;;;;0.40;0.40;;;;;;;-4.51;62.93;101613.66;4940461;29;20268;-89
2022/03/19 03:10:31;;;;;;;0.50;0.50;;;;;;;-4.56;62.85;101613.06;4940198;29;20079;-88
2022/03/19 03:12:59;;;;;;;0.50;0.50;;;;;;;-4.61;62.88;101604.56;4940958;29;20096;-89
2022/03/19 03:15:26;;;;;;;0.60;0.60;;;;;;;-4.62;62.83;101608.13;4924124;29;20047;-90
2022/03/19 03:17:54;;;;;;;0.52;0.52;;;;;;;-4.62;63.00;101603.72;4909063;29;20032;-88
2022/03/19 03:20:21;;;;;;;0.50;0.50;;;;;;;-4.69;62.96;101599.69;4940908;29;20028;-89
2022/03/19 03:22:48;;;;;;;0.60;0.60;;;;;;;-4.74;63.31;101599.09;4940953;29;20047;-88
2022/03/19 03:25:15;;;;;;;0.63;0.63;;;;;;;-4.81;63.48;101609.13;4940736;29;20664;-88
2022/03/19 03:27:43;;;;;;;0.55;0.55;;;;;;;-4.86;63.51;101611.16;4939078;29;20052;-89
2022/03/19 03:30:10;;;;;;;0.50;0.50;;;;;;;-4.91;63.78;101609.69;4926233;29;20096;-91
2022/03/19 03:32:37;;;;;;;0.40;0.40;;;;;;;-4.96;63.77;101614.34;4924441;29;20151;-89
2022/03/19 03:35:05;;;;;;;0.70;0.70;;;;;;;-5.05;63.95;101613.91;4908691;29;20575;-90
2022/03/19 03:37:32;;;;;;;0.70;0.70;;;;;;;-5.11;64.30;101613.38;4926213;29;20067;-89
2022/03/19 03:39:59;;;;;;;0.68;0.68;;;;;;;-5.16;64.41;101607.50;4928232;29;20055;-88
2022/03/19 03:42:27;;;;;;;0.50;0.50;;;;;;;-5.14;64.50;101610.91;4926375;29;20507;-90
2022/03/19 03:44:58;;;;;;;0.40;0.40;;;;;;;-5.18;64.45;101619.91;4924958;29;20055;-90
2022/03/19 03:47:26;;;;;;;0.70;0.70;;;;;;;-5.19;64.62;101612.91;4927179;29;20048;-91
2022/03/19 03:49:53;;;;;;;0.70;0.70;;;;;;;-5.13;64.42;101621.34;4929118;29;20051;-93
2022/03/19 03:52:21;;;;;;;0.60;0.60;;;;;;;-5.07;64.47;101621.03;4928807;29;20059;-90
2022/03/19 03:54:48;;;;;;;0.70;0.70;;;;;;;-5.06;64.42;101627.16;4906920;29;20075;-89
2022/03/19 03:57:15;;;;;;;0.63;0.63;;;;;;;-5.02;64.51;101623.41;4926036;29;20040;-90
2022/03/19 03:59:44;;;;;;;0.75;0.75;;;;;;;-4.97;64.45;101629.31;4893584;29;20052;-89
2022/03/19 04:02:11;;;;;;;0.60;0.60;;;;;;;-4.93;64.28;101619.47;4924535;29;20534;-89
2022/03/19 04:04:39;;;;;;;0.60;0.60;;;;;;;-4.85;64.25;101633.09;4920113;29;20079;-89
2022/03/19 04:07:07;;;;;;;0.63;0.63;;;;;;;-4.80;64.18;101629.28;4923580;29;20140;-89
2022/03/19 04:09:35;;;;;;;0.55;0.55;;;;;;;-4.71;64.11;101632.34;4920646;29;20080;-89
2022/03/19 04:12:03;;;;;;;0.70;0.70;;;;;;;-4.69;63.96;101628.69;4919427;29;20107;-90
2022/03/19 04:14:30;;;;;;;0.70;0.70;;;;;;;-4.62;63.77;101629.22;4901586;29;20048;-89
2022/03/19 04:16:57;;;;;;;0.68;0.68;;;;;;;-4.54;63.52;101632.28;4920170;29;20056;-89
2022/03/19 04:19:25;;;;;;;0.60;0.60;;;;;;;-4.48;63.34;101633.72;4919453;29;20056;-90
2022/03/19 04:21:55;;;;;;;0.55;0.55;;;;;;;-4.43;63.28;101640.47;4919052;29;20048;-90
2022/03/19 04:24:22;;;;;;;0.57;0.57;;;;;;;-4.35;63.27;101637.44;4918091;29;20052;-90
2022/03/19 04:26:49;;;;;;;0.50;0.50;;;;;;;-4.33;63.12;101629.41;4902072;29;20416;-90
2022/03/19 04:29:17;;;;;;;0.70;0.70;;;;;;;-4.27;63.05;101629.94;4921510;29;20048;-90
2022/03/19 04:31:48;;;;;;;0.50;0.50;;;;;;;-4.23;62.90;101641.16;4891088;29;20079;-89
2022/03/19 04:34:15;;;;;;;0.50;0.50;;;;;;;-4.18;63.07;101647.03;4922446;29;20155;-90
2022/03/19 04:36:44;;;;;;;0.55;0.55;;;;;;;-4.15;62.64;101638.97;4886361;29;20103;-91
2022/03/19 04:39:11;;;;;;;0.50;0.50;;;;;;;-4.02;62.46;101634.69;4919295;29;20170;-88
2022/03/19 04:41:38;;;;;;;0.50;0.50;;;;;;;-3.92;62.17;101646.44;4903034;29;20048;-89
2022/03/19 04:44:11;;;;;;;0.40;0.40;;;;;;;-3.89;62.24;101647.19;4901581;29;20143;-90
2022/03/19 04:46:38;;;;;;;0.65;0.65;;;;;;;-3.95;62.13;101628.16;4903506;29;20139;-90
2022/03/19 04:49:08;;;;;;;0.40;0.40;;;;;;;-3.79;61.81;101645.75;4919630;29;20048;-91
2022/03/19 04:51:38;;;;;;;0.57;0.57;;;;;;;-3.76;61.83;101648.19;4926491;29;20139;-92
2022/03/19 04:54:06;;;;;;;0.70;0.70;;;;;;;-3.69;61.62;101657.47;4894458;29;20056;-92
2022/03/19 04:57:24;;;;;;;0.57;0.57;;;;;;;-3.80;61.65;101636.97;4926337;29;20056;-91
2022/03/19 05:00:00;;;;;;;0.68;0.68;;;;;;;-3.64;61.54;101650.13;4870372;29;20143;-92
2022/03/19 05:02:28;;;;;;;0.60;0.60;;;;;;;-3.59;61.21;101648.09;4895670;29;20432;-91
2022/03/19 05:04:55;;;;;;;0.70;0.70;;;;;;;-3.35;61.10;101656.34;4904891;29;20060;-90
2022/03/19 05:07:24;;;;;;;0.60;0.60;;;;;;;-3.20;60.97;101669.59;4857904;29;20052;-93
2022/03/19 05:12:43;;;;;;;0.40;0.40;;;;;;;-3.06;61.42;101677.56;4873455;29;20109;-89
2022/03/19 05:15:12;;;;;;;0.50;0.50;;;;;;;-3.05;61.35;101663.41;4899542;29;20048;-90
2022/03/19 05:17:40;;;;;;;0.50;0.50;;;;;;;-2.81;60.89;101676.09;4890743;29;20587;-90
2022/03/19 05:20:08;;;;;;;0.60;0.60;;;;;;;-2.65;60.33;101676.88;4883341;29;20507;-87
2022/03/19 05:22:38;;;;;;;0.52;0.52;;;;;;;-2.56;59.75;101670.16;4871170;29;20049;-87
2022/03/19 05:25:12;;;;;;;0.50;0.50;;;;;;;-2.68;59.78;101655.91;4896221;29;20068;-86
2022/03/19 05:27:43;;;;;;;0.50;0.50;;;;;;;-2.52;59.41;101661.09;4860540;29;20520;-88
2022/03/19 05:30:19;;;;;;;0.50;0.50;;;;;;;-2.50;59.16;101649.47;4855958;29;20452;-87
2022/03/19 05:32:49;;;;;;;0.50;0.50;;;;;;;-2.23;58.81;101662.78;4886273;29;20052;-90
2022/03/19 05:35:18;;;;;;;0.50;0.50;;;;;;;-1.93;58.20;101685.56;4873098;29;20056;-91
2022/03/19 05:37:59;;;;;;;0.47;0.47;;;;;;;-1.81;57.63;101676.00;4858475;29;20064;-92
2022/03/19 05:40:30;;;;;;;0.63;0.63;;;;;;;-1.76;57.31;101648.28;4856894;29;20061;-92
2022/03/19 05:43:05;;;;;;;0.65;0.65;;;;;;;-1.49;57.22;101663.31;4840363;29;20153;-90
2022/03/19 05:45:35;;;;;;;0.70;0.70;;;;;;;-1.16;56.67;101677.91;4812046;29;20210;-90
2022/03/19 05:48:02;;;;;;;0.70;0.70;;;;;;;-0.93;56.20;101677.19;4806884;29;20192;-89
2022/03/19 05:50:31;;;;;;;0.50;0.50;;;;;;;-0.77;56.09;101684.09;4826014;29;20146;-92
2022/03/19 05:52:58;;;;;;;0.80;0.80;;;;;;;-0.71;55.53;101654.47;4768378;30;20055;-89
2022/03/19 05:55:25;;;;;;;0.80;0.80;;;;;;;-0.72;55.17;101653.63;4778463;30;20056;-89
2022/03/19 05:57:53;;;;;;;0.40;0.40;;;;;;;-0.49;55.15;101681.22;4782375;30;20088;-87
2022/03/19 06:00:20;;;;;;;0.68;0.68;;;;;;;-0.29;53.96;101676.31;4787272;29;20071;-86
2022/03/19 06:02:48;;;;;;;0.77;0.77;;;;;;;-0.13;53.52;101679.56;4789000;30;20062;-87
2022/03/19 06:05:19;;;;;;;0.50;0.50;;;;;;;-0.02;53.67;101673.50;4763986;30;20095;-88
2022/03/19 06:07:48;;;;;;;0.70;0.70;;;;;;;0.21;53.44;101679.78;4784216;30;20055;-87
2022/03/19 06:10:21;;;;;;;0.70;0.70;;;;;;;0.41;52.91;101681.00;4766313;30;20059;-92
2022/03/19 06:12:48;;;;;;;0.70;0.70;;;;;;;0.52;52.49;101682.84;4773439;30;20059;-89
2022/03/19 06:15:18;;;;;;;0.55;0.55;;;;;;;0.65;52.09;101680.97;4832427;29;20058;-87
2022/03/19 06:17:46;;;;;;;0.70;0.70;;;;;;;0.75;51.81;101684.63;4829629;29;20082;-89
2022/03/19 06:20:14;;;;;;;0.57;0.57;;;;;;;0.66;51.50;101658.75;4841984;29;20050;-85
2022/03/19 06:22:47;;;;;;;0.77;0.77;;;;;;;0.97;51.26;101675.03;4834002;29;20085;-89
2022/03/19 06:25:39;;;;;;;0.73;0.73;;;;;;;1.12;50.67;101679.19;4886301;29;20056;-88
2022/03/19 06:28:06;;;;;;;0.70;0.70;;;;;;;1.32;50.54;101682.09;4817671;29;20089;-89
2022/03/19 06:30:37;;;;;;;0.80;0.80;;;;;;;1.38;50.04;101663.84;4819335;29;20054;-89
2022/03/19 06:33:18;;;;;;;0.80;0.80;;;;;;;1.58;49.72;101669.44;4792098;29;20057;-89
2022/03/19 06:38:39;;;;;;;0.70;0.70;;;;;;;1.82;48.67;101678.13;4831028;29;20046;-90
2022/03/19 06:41:12;;;;;;;0.77;0.77;;;;;;;1.93;48.34;101698.59;4835182;29;20076;-90
2022/03/19 06:43:45;;;;;;;0.77;0.77;;;;;;;1.88;48.05;101674.97;4823435;29;20082;-89
2022/03/19 06:46:16;;;;;;;0.70;0.70;;;;;;;2.01;48.21;101695.31;4850587;29;20062;-89
2022/03/19 06:48:46;;;;;;;0.80;0.80;;;;;;;2.18;47.66;101692.13;4864876;29;20057;-89
2022/03/19 06:51:21;;;;;;;0.80;0.80;;;;;;;2.33;47.73;101690.03;4864067;29;20058;-89
2022/03/19 06:53:48;;;;;;;0.80;0.80;;;;;;;2.40;47.32;101680.56;4834960;29;20057;-89
2022/03/19 06:56:19;;;;;;;0.80;0.80;;;;;;;2.42;47.00;101683.09;4849896;29;20072;-90
2022/03/19 06:58:56;;;;;;;0.70;0.70;;;;;;;2.37;46.87;101660.34;4842180;29;20053;-89
2022/03/19 07:01:25;;;;;;;0.80;0.80;;;;;;;2.58;46.23;101672.84;4865925;29;20081;-88
2022/03/19 07:03:54;;;;;;;0.80;0.80;;;;;;;2.67;45.98;101682.75;4856642;29;20042;-89
2022/03/19 07:06:25;;;;;;;0.75;0.75;;;;;;;2.55;45.29;101657.97;4837231;29;20072;-89
2022/03/19 07:09:12;;;;;;;0.80;0.80;;;;;;;2.73;45.70;101686.72;4823339;29;20125;-87
2022/03/19 07:11:44;;;;;;;0.63;0.63;;;;;;;2.80;45.04;101679.91;4851473;29;20077;-89
2022/03/19 07:14:12;;;;;;;0.80;0.80;;;;;;;2.91;44.96;101676.34;4851235;29;20053;-89
2022/03/19 07:16:44;;;;;;;0.80;0.80;;;;;;;3.02;44.66;101678.97;4850685;29;20058;-88
2022/03/19 07:19:19;;;;;;;0.80;0.80;;;;;;;3.02;44.38;101666.47;4822986;29;20049;-89
2022/03/19 07:21:49;;;;;;;0.90;0.90;;;;;;;3.25;43.91;101685.00;4847979;29;20474;-89
2022/03/19 07:24:17;;;;;;;0.88;0.88;;;;;;;3.26;43.84;101673.34;4873528;29;20504;-89
2022/03/19 07:26:46;;;;;;;0.80;0.80;;;;;;;3.35;43.43;101669.06;4872467;29;20048;-89
2022/03/19 07:29:18;;;;;;;0.90;0.90;;;;;;;3.61;43.13;101685.47;4854605;29;20088;-89
2022/03/19 07:31:54;;;;;;;0.80;0.80;;;;;;;3.66;42.74;101669.91;4854809;29;20060;-89
2022/03/19 07:34:24;;;;;;;0.85;0.85;;;;;;;3.93;42.09;101687.16;4881503;29;20057;-88
2022/03/19 07:36:51;;;;;;;0.90;0.90;;;;;;;4.08;41.59;101697.31;4867214;29;20045;-89
2022/03/19 07:39:18;;;;;;;0.90;0.90;;;;;;;4.15;41.42;101684.25;4853848;29;20102;-89
2022/03/19 07:41:48;;;;;;;0.85;0.85;;;;;;;4.21;41.49;101686.38;4884103;29;20057;-91
2022/03/19 07:44:22;;;;;;;0.75;0.75;;;;;;;4.38;40.88;101686.69;4869419;29;20091;-90
2022/03/19 07:46:52;;;;;;;0.90;0.90;;;;;;;4.62;40.51;101675.59;4866244;29;20096;-92
2022/03/19 07:49:19;;;;;;;0.90;0.90;;;;;;;4.60;39.62;101648.97;4868706;29;20359;-88
2022/03/19 07:51:51;;;;;;;0.80;0.80;;;;;;;4.99;39.53;101687.28;4868957;29;20093;-89
2022/03/19 07:54:44;;;;;;;0.90;0.90;;;;;;;5.22;38.68;101677.09;4855838;29;20154;-90
2022/03/19 07:57:13;;;;;;;0.80;0.80;;;;;;;5.38;38.19;101675.63;4858286;29;20063;-88
2022/03/19 07:59:41;;;;;;;0.80;0.80;;;;;;;5.38;36.51;101664.91;4891586;29;20059;-90
2022/03/19 08:02:08;;;;;;;0.80;0.80;;;;;;;5.15;36.16;101640.31;4893028;29;20053;-88
2022/03/19 08:04:36;;;;;;;0.70;0.70;;;;;;;5.47;35.80;101674.78;4868128;29;20072;-88
2022/03/19 08:07:03;;;;;;;0.90;0.90;;;;;;;5.74;35.35;101649.81;4888635;29;20108;-86
2022/03/19 08:09:31;;;;;;;0.80;0.80;;;;;;;6.07;35.22;101651.09;4892188;29;20041;-89
2022/03/19 08:11:59;;;;;;;0.90;0.90;;;;;;;6.41;34.41;101669.22;4888287;29;20064;-86
2022/03/19 08:14:29;;;;;;;0.80;0.80;;;;;;;6.46;34.57;101653.53;4888802;29;20095;-86
2022/03/19 08:16:59;;;;;;;0.80;0.80;;;;;;;6.96;34.84;101662.81;4868995;29;20052;-86
2022/03/19 08:19:30;;;;;;;0.82;0.82;;;;;;;7.40;33.80;101681.59;4877124;29;20053;-87
2022/03/19 08:22:18;;;;;;;0.90;0.90;;;;;;;7.25;32.87;101680.50;4884685;29;20053;-83
2022/03/19 08:24:46;;;;;;;0.90;0.90;;;;;;;7.65;33.44;101679.91;4875815;29;20501;-86
2022/03/19 08:27:13;;;;;;;0.88;0.88;;;;;;;8.06;32.65;101676.56;4868023;29;20060;-85
2022/03/19 08:29:40;;;;;;;0.90;0.90;;;;;;;8.14;31.91;101653.19;4881242;29;20070;-85
2022/03/19 08:32:11;;;;;;;0.90;0.90;;;;;;;8.45;31.46;101672.28;4863757;29;20088;-86
2022/03/19 08:34:38;;;;;;;0.90;0.90;;;;;;;8.38;32.04;101671.28;4862528;29;20063;-84
2022/03/19 08:37:05;;;;;;;0.90;0.90;;;;;;;8.81;32.13;101671.16;4858937;29;20201;-86
2022/03/19 08:42:18;;;;;;;0.82;0.82;;;;;;;9.71;31.25;101666.47;4895787;29;20520;-82
2022/03/19 08:44:45;;;;;;;0.90;0.90;;;;;;;10.21;29.99;101672.50;4896454;29;20546;-88
2022/03/19 08:47:12;;;;;;;0.90;0.90;;;;;;;10.14;29.83;101668.81;4872575;29;20488;-85
2022/03/19 08:49:40;;;;;;;0.90;0.90;;;;;;;10.16;29.79;101667.63;4888470;29;20485;-84
2022/03/19 08:52:07;;;;;;;0.90;0.90;;;;;;;10.31;29.00;101670.44;4886951;29;20074;-86
2022/03/19 08:55:07;;;;;;;0.80;0.80;;;;;;;10.50;29.93;101679.94;4898741;29;20056;-88
2022/03/19 08:57:54;;;;;;;0.88;0.88;;;;;;;10.81;29.14;101677.19;4890572;29;20491;-90
2022/03/19 09:00:22;;;;;;;0.80;0.80;;;;;;;11.11;28.08;101674.56;4894705;29;20056;-90
2022/03/19 09:02:55;;;;;;;0.80;0.80;;;;;;;11.56;28.11;101689.00;4877602;29;20053;-88
2022/03/19 09:05:28;;;;;;;0.90;0.90;;;;;;;11.61;27.93;101678.47;4889988;29;20081;-88
2022/03/19 09:07:55;;;;;;;0.80;0.80;;;;;;;11.64;28.19;101674.53;4841441;29;20049;-91
2022/03/19 09:10:28;;;;;;;0.80;0.80;;;;;;;12.29;27.43;101686.44;4861792;29;20053;-91
2022/03/19 09:13:09;;;;;;;0.80;0.80;;;;;;;12.40;26.87;101679.69;4870131;29;20045;-86
2022/03/19 09:15:36;;;;;;;0.85;0.85;;;;;;;12.61;26.78;101674.31;4893891;29;20105;-86
2022/03/19 09:18:05;;;;;;;0.80;0.80;;;;;;;12.79;26.46;101669.28;4870105;29;20151;-86
2022/03/19 09:20:33;;;;;;;0.80;0.80;;;;;;;12.79;26.48;101682.00;4869714;29;20057;-87
2022/03/19 09:23:02;;;;;;;0.80;0.80;;;;;;;12.82;26.45;101678.88;4898930;29;20049;-87
2022/03/19 09:25:35;;;;;;;0.80;0.80;;;;;;;13.15;25.49;101681.03;4902681;29;20057;-87
2022/03/19 09:28:03;;;;;;;0.80;0.80;;;;;;;13.33;25.39;101678.72;4861383;29;20057;-86
2022/03/19 09:30:30;;;;;;;0.80;0.80;;;;;;;13.48;25.20;101675.06;4873137;29;20364;-86
2022/03/19 09:32:57;;;;;;;0.80;0.80;;;;;;;13.73;24.76;101681.69;4878144;29;20053;-83
2022/03/19 09:35:43;;;;;;;0.80;0.80;;;;;;;13.66;24.88;101689.78;4884821;29;20068;-83
2022/03/19 09:38:13;;;;;;;0.80;0.80;;;;;;;13.41;24.53;101696.69;4887952;29;20045;-81
2022/03/19 09:40:43;;;;;;;0.80;0.80;;;;;;;13.85;25.12;101677.38;4846389;29;20068;-85
2022/03/19 09:43:10;;;;;;;0.80;0.80;;;;;;;14.09;23.98;101688.75;4856986;29;20857;-84
2022/03/19 09:45:55;;;;;;;0.80;0.80;;;;;;;14.07;23.97;101686.22;4867865;29;20474;-85
2022/03/19 09:48:23;;;;;;;0.80;0.80;;;;;;;14.36;23.44;101694.28;4856977;29;20054;-85
2022/03/19 09:50:54;;;;;;;0.80;0.80;;;;;;;14.63;23.29;101687.06;4868825;29;20060;-84
2022/03/19 09:53:23;;;;;;;0.80;0.80;;;;;;;14.81;22.61;101689.19;4515429;29;10000309;-85
2022/03/19 09:55:53;;;;;;;0.80;0.80;;;;;;;14.94;22.42;101692.75;4860764;29;20382;-85
2022/03/19 09:58:20;;;;;;;0.80;0.80;;;;;;;14.27;23.15;101674.59;4874061;29;20143;-85
2022/03/19 10:00:47;;;;;;;0.70;0.70;;;;;;;14.71;23.06;101681.41;4868385;29;20049;-85
2022/03/19 10:03:22;;;;;;;0.70;0.70;;;;;;;15.30;23.20;101677.06;4865158;29;20053;-85
2022/03/19 10:08:43;;;;;;;0.80;0.80;;;;;;;15.47;22.01;101685.59;4872410;29;20050;-85
2022/03/19 10:11:15;;;;;;;0.80;0.80;;;;;;;15.49;22.01;101678.06;4855816;29;20141;-85
2022/03/19 10:13:46;;;;;;;0.73;0.73;;;;;;;15.52;21.99;101689.41;4840186;29;20068;-85
2022/03/19 10:16:22;;;;;;;0.70;0.70;;;;;;;15.74;21.42;101695.44;4859693;29;20146;-85
2022/03/19 10:18:56;;;;;;;0.80;0.80;;;;;;;15.49;21.51;101686.25;4857689;29;20222;-85
2022/03/19 10:21:25;;;;;;;0.80;0.80;;;;;;;15.46;21.97;101694.84;4857979;29;20779;-86
2022/03/19 10:23:53;;;;;;;0.80;0.80;;;;;;;15.44;21.40;101692.31;4859446;29;20064;-85
2022/03/19 10:26:34;;;;;;;0.80;0.80;;;;;;;15.35;21.84;101694.44;4865093;29;20050;-86
2022/03/19 10:29:02;;;;;;;0.88;0.88;;;;;;;15.69;21.25;101694.38;4867948;29;20057;-85
2022/03/19 10:31:39;;;;;;;0.77;0.77;;;;;;;15.82;21.16;101699.81;4853003;29;20056;-88
2022/03/19 10:34:08;;;;;;;0.80;0.80;;;;;;;15.54;21.15;101692.72;4852884;29;20101;-86
2022/03/19 10:36:37;;;;;;;0.80;0.80;;;;;;;16.29;21.67;101700.47;4869957;29;20097;-86
2022/03/19 10:39:07;;;;;;;0.80;0.80;;;;;;;16.99;20.50;101696.94;4864876;29;20068;-86
2022/03/19 10:41:35;;;;;;;0.70;0.70;;;;;;;16.99;20.73;101702.38;4890810;29;20671;-88
2022/03/19 10:44:16;;;;;;;0.80;0.80;;;;;;;16.72;19.79;101699.00;4876145;29;20063;-88
2022/03/19 10:46:48;;;;;;;0.80;0.80;;;;;;;16.16;20.20;101700.56;4891196;29;20053;-89
2022/03/19 10:49:19;;;;;;;0.80;0.80;;;;;;;16.05;20.41;101691.13;4882635;29;20077;-90
2022/03/19 10:51:49;;;;;;;0.90;0.90;;;;;;;16.00;20.84;101690.94;4904751;29;20060;-90
2022/03/19 10:54:16;;;;;;;0.80;0.80;;;;;;;17.02;20.36;101693.78;4899619;29;20056;-90
2022/03/19 10:56:45;;;;;;;0.80;0.80;;;;;;;17.57;19.29;101693.88;4890278;29;20053;-88
2022/03/19 10:59:14;;;;;;;0.80;0.80;;;;;;;17.28;19.61;101688.09;4897102;29;20140;-88
2022/03/19 11:01:44;;;;;;;0.73;0.73;;;;;;;17.80;19.43;101687.81;4897684;29;20052;-88
2022/03/19 11:04:12;;;;;;;0.80;0.80;;;;;;;17.87;19.63;101685.81;4900378;29;20113;-88
2022/03/19 11:06:41;;;;;;;0.80;0.80;;;;;;;17.57;19.69;101687.59;4895298;29;20105;-88
2022/03/19 11:09:10;;;;;;;0.80;0.80;;;;;;;17.60;19.71;101674.34;4882243;29;20052;-89
2022/03/19 11:11:47;;;;;;;0.80;0.80;;;;;;;18.33;19.17;101684.44;4887897;29;20041;-88
2022/03/19 11:14:23;;;;;;;0.80;0.80;;;;;;;18.86;19.01;101680.09;4876925;29;20057;-88
2022/03/19 11:17:32;;;;;;;0.73;0.73;;;;;;;18.93;18.33;101688.19;4879503;29;20654;-89
2022/03/19 11:19:56;;;;;;;0.70;0.70;;;;;;;18.60;18.41;101670.38;4851837;29;20159;-88
2022/03/19 11:22:23;;;;;;;0.80;0.80;;;;;;;17.99;18.81;101674.97;4882297;29;20065;-89
2022/03/19 11:25:14;;;;;;;0.70;0.70;;;;;;;18.39;19.10;101674.47;4859900;29;20509;-88
2022/03/19 11:27:44;;;;;;;0.70;0.70;;;;;;;18.57;19.30;101668.94;4878553;29;20492;-90
2022/03/19 11:30:22;;;;;;;0.70;0.70;;;;;;;18.43;18.76;101667.44;4875911;29;20055;-88
2022/03/19 11:33:15;;;;;;;0.70;0.70;;;;;;;18.31;18.86;101666.59;4870520;29;21846;-91
2022/03/19 11:35:45;;;;;;;0.70;0.70;;;;;;;18.08;18.61;101670.88;4902794;29;20452;-89
2022/03/19 11:38:16;;;;;;;0.70;0.70;;;;;;;17.23;18.86;101676.16;4885355;29;20044;-89
2022/03/19 11:40:54;;;;;;;0.70;0.70;;;;;;;17.09;19.39;101667.25;4887015;29;20057;-87
2022/03/19 11:43:47;;;;;;;0.80;0.80;;;;;;;17.50;19.76;101680.31;4889413;29;20057;-89
2022/03/19 11:46:14;;;;;;;0.70;0.70;;;;;;;18.50;19.28;101678.31;4805057;29;20059;-86
2022/03/19 11:48:50;;;;;;;0.70;0.70;;;;;;;18.84;18.17;101668.56;4806487;29;20062;-88
2022/03/19 11:51:37;;;;;;;0.70;0.70;;;;;;;19.33;17.65;101661.00;4789508;29;20050;-89
2022/03/19 11:54:15;;;;;;;0.70;0.70;;;;;;;20.00;18.00;101659.72;4786932;29;20065;-88
2022/03/19 11:56:42;;;;;;;0.68;0.68;;;;;;;20.24;17.60;101652.25;4800775;29;20535;-87